sensor_id;sensor_type;location;lat;lon;timestamp;pressure;altitude;pressure_sealevel;temperature;humidity
13765;BME280;6953;48.810;9.204;2023-02-28T00:01:22;99500.41;;;-0.29;68.60
13765;BME280;6953;48.810;9.204;2023-02-28T00:03:48;99496.97;;;-0.31;68.88
13765;BME280;6953;48.810;9.204;2023-02-28T00:06:14;99505.56;;;-0.32;69.20
13765;BME280;6953;48.810;9.204;2023-02-28T00:08:39;99417.78;;;-0.84;69.40
13765;BME280;6953;48.810;9.204;2023-02-28T00:11:07;99550.22;;;-0.28;69.52
13765;BME280;6953;48.810;9.204;2023-02-28T00:13:34;99188.28;;;-2.12;69.59
13765;BME280;6953;48.810;9.204;2023-02-28T00:16:05;99449.63;;;-0.57;69.44
13765;BME280;6953;48.810;9.204;2023-02-28T00:18:33;99506.41;;;-0.25;69.91
13765;BME280;6953;48.810;9.204;2023-02-28T00:20:58;99422.97;;;-0.74;69.62
13765;BME280;6953;48.810;9.204;2023-02-28T00:23:25;99396.31;;;-0.92;70.32
13765;BME280;6953;48.810;9.204;2023-02-28T00:25:51;99489.22;;;-0.35;69.99
13765;BME280;6953;48.810;9.204;2023-02-28T00:28:16;99189.16;;;-2.15;70.26
13765;BME280;6953;48.810;9.204;2023-02-28T00:30:42;99478.84;;;-0.50;69.93
13765;BME280;6953;48.810;9.204;2023-02-28T00:33:07;99457.31;;;-0.75;70.30
13765;BME280;6953;48.810;9.204;2023-02-28T00:35:32;99501.25;;;-0.34;70.46
13765;BME280;6953;48.810;9.204;2023-02-28T00:37:58;99200.28;;;-2.11;70.47
13765;BME280;6953;48.810;9.204;2023-02-28T00:40:23;99501.22;;;-0.45;70.57
13765;BME280;6953;48.810;9.204;2023-02-28T00:42:48;99476.25;;;-0.58;70.71
13765;BME280;6953;48.810;9.204;2023-02-28T00:45:14;99508.94;;;-0.43;71.00
13765;BME280;6953;48.810;9.204;2023-02-28T00:47:39;99491.75;;;-0.52;70.71
13765;BME280;6953;48.810;9.204;2023-02-28T00:50:05;99506.41;;;-0.42;72.03
13765;BME280;6953;48.810;9.204;2023-02-28T00:52:31;99429.78;;;-0.89;71.99
13765;BME280;6953;48.810;9.204;2023-02-28T00:54:56;99509.78;;;-0.49;72.52
13765;BME280;6953;48.810;9.204;2023-02-28T00:57:22;99512.38;;;-0.49;72.42
13765;BME280;6953;48.810;9.204;2023-02-28T00:59:47;99230.25;;;-2.13;72.69
13765;BME280;6953;48.810;9.204;2023-02-28T01:02:13;99508.09;;;-0.51;73.06
13765;BME280;6953;48.810;9.204;2023-02-28T01:04:38;99256.91;;;-1.98;73.17
13765;BME280;6953;48.810;9.204;2023-02-28T01:07:04;99507.19;;;-0.52;73.34
13765;BME280;6953;48.810;9.204;2023-02-28T01:09:29;99373.84;;;-1.27;73.75
13765;BME280;6953;48.810;9.204;2023-02-28T01:11:54;99483.13;;;-0.61;73.45
13765;BME280;6953;48.810;9.204;2023-02-28T01:14:20;99483.91;;;-0.76;74.05
13765;BME280;6953;48.810;9.204;2023-02-28T01:16:45;99524.34;;;-0.58;73.78
13765;BME280;6953;48.810;9.204;2023-02-28T01:19:11;99179.63;;;-2.32;74.17
13765;BME280;6953;48.810;9.204;2023-02-28T01:21:36;99471.94;;;-0.59;74.50
13765;BME280;6953;48.810;9.204;2023-02-28T01:24:03;99503.78;;;-0.48;74.38
13765;BME280;6953;48.810;9.204;2023-02-28T01:26:29;99488.31;;;-0.49;75.30
13765;BME280;6953;48.810;9.204;2023-02-28T01:28:54;99534.69;;;-0.46;74.78
13765;BME280;6953;48.810;9.204;2023-02-28T01:31:21;99527.00;;;-0.40;75.83
13765;BME280;6953;48.810;9.204;2023-02-28T01:33:46;99177.09;;;-2.22;75.13
13765;BME280;6953;48.810;9.204;2023-02-28T01:36:14;99490.06;;;-0.38;75.21
13765;BME280;6953;48.810;9.204;2023-02-28T01:38:40;99454.78;;;-0.61;75.50
13765;BME280;6953;48.810;9.204;2023-02-28T01:41:06;99435.84;;;-0.75;75.44
13765;BME280;6953;48.810;9.204;2023-02-28T01:46:10;99466.81;;;-0.57;76.32
13765;BME280;6953;48.810;9.204;2023-02-28T01:48:40;99520.13;;;-0.46;76.81
13765;BME280;6953;48.810;9.204;2023-02-28T01:51:15;99500.38;;;-0.44;77.18
13765;BME280;6953;48.810;9.204;2023-02-28T01:53:46;99488.34;;;-0.42;76.85
13765;BME280;6953;48.810;9.204;2023-02-28T01:56:13;99174.56;;;-2.20;77.05
13765;BME280;6953;48.810;9.204;2023-02-28T01:58:46;99459.09;;;-0.53;77.22
13765;BME280;6953;48.810;9.204;2023-02-28T02:01:12;99477.19;;;-0.35;77.51
13765;BME280;6953;48.810;9.204;2023-02-28T02:03:47;99480.66;;;-0.30;77.11
13765;BME280;6953;48.810;9.204;2023-02-28T02:06:12;99474.66;;;-0.26;77.37
13765;BME280;6953;48.810;9.204;2023-02-28T02:08:38;99472.06;;;-0.21;77.42
13765;BME280;6953;48.810;9.204;2023-02-28T02:11:03;99448.84;;;-0.33;77.24
13765;BME280;6953;48.810;9.204;2023-02-28T02:18:57;99472.97;;;-0.10;77.16
13765;BME280;6953;48.810;9.204;2023-02-28T02:21:50;99253.72;;;-1.37;77.04
13765;BME280;6953;48.810;9.204;2023-02-28T02:27:26;99454.91;;;-0.03;77.60
13765;BME280;6953;48.810;9.204;2023-02-28T02:33:03;99456.66;;;0.05;77.78
13765;BME280;6953;48.810;9.204;2023-02-28T02:36:13;99490.16;;;0.11;77.48
13765;BME280;6953;48.810;9.204;2023-02-28T02:38:53;99146.50;;;-1.68;77.08
13765;BME280;6953;48.810;9.204;2023-02-28T02:41:34;99412.78;;;-0.06;77.27
13765;BME280;6953;48.810;9.204;2023-02-28T02:44:12;99478.16;;;0.22;77.61
13765;BME280;6953;48.810;9.204;2023-02-28T02:46:42;99428.28;;;0.02;77.38
13765;BME280;6953;48.810;9.204;2023-02-28T02:49:12;99445.47;;;0.17;77.31
13765;BME280;6953;48.810;9.204;2023-02-28T02:51:40;99384.41;;;-0.17;77.47
13765;BME280;6953;48.810;9.204;2023-02-28T02:56:42;99287.34;;;-0.69;77.17
13765;BME280;6953;48.810;9.204;2023-02-28T02:59:11;99435.13;;;0.08;77.01
13765;BME280;6953;48.810;9.204;2023-02-28T03:01:39;99385.28;;;0.06;76.98
13765;BME280;6953;48.810;9.204;2023-02-28T03:04:10;99136.25;;;-1.32;77.21
13765;BME280;6953;48.810;9.204;2023-02-28T03:06:37;99243.56;;;-0.69;76.49
13765;BME280;6953;48.810;9.204;2023-02-28T03:09:02;99139.69;;;-1.21;77.00
13765;BME280;6953;48.810;9.204;2023-02-28T03:11:28;99462.63;;;0.69;76.85
13765;BME280;6953;48.810;9.204;2023-02-28T03:14:20;99491.03;;;0.75;76.66
13765;BME280;6953;48.810;9.204;2023-02-28T03:22:24;99527.16;;;0.79;76.87
13765;BME280;6953;48.810;9.204;2023-02-28T03:28:08;99460.88;;;0.78;77.07
13765;BME280;6953;48.810;9.204;2023-02-28T03:30:58;99450.56;;;0.72;77.10
13765;BME280;6953;48.810;9.204;2023-02-28T03:33:30;99513.38;;;0.83;77.00
13765;BME280;6953;48.810;9.204;2023-02-28T03:36:03;99460.88;;;0.83;77.01
13765;BME280;6953;48.810;9.204;2023-02-28T03:38:33;99436.81;;;0.70;77.42
13765;BME280;6953;48.810;9.204;2023-02-28T03:41:10;99382.66;;;0.45;77.13
13765;BME280;6953;48.810;9.204;2023-02-28T03:43:43;99441.94;;;0.85;77.19
13765;BME280;6953;48.810;9.204;2023-02-28T03:46:12;99210.88;;;-0.40;77.22
13765;BME280;6953;48.810;9.204;2023-02-28T03:48:44;99432.47;;;0.90;76.93
13765;BME280;6953;48.810;9.204;2023-02-28T03:51:16;99428.13;;;0.94;76.74
13765;BME280;6953;48.810;9.204;2023-02-28T03:53:49;99157.66;;;-0.59;76.72
13765;BME280;6953;48.810;9.204;2023-02-28T03:56:21;99170.56;;;-0.51;76.75
13765;BME280;6953;48.810;9.204;2023-02-28T03:59:05;99455.59;;;1.20;76.38
13765;BME280;6953;48.810;9.204;2023-02-28T04:01:38;99516.75;;;1.19;76.59
13765;BME280;6953;48.810;9.204;2023-02-28T04:04:07;99441.00;;;1.10;76.63
13765;BME280;6953;48.810;9.204;2023-02-28T04:06:33;99161.09;;;-0.54;76.40
13765;BME280;6953;48.810;9.204;2023-02-28T04:08:59;99449.66;;;0.96;76.67
13765;BME280;6953;48.810;9.204;2023-02-28T04:11:38;99459.03;;;1.28;76.39
13765;BME280;6953;48.810;9.204;2023-02-28T04:14:05;99506.38;;;1.34;76.18
13765;BME280;6953;48.810;9.204;2023-02-28T04:16:31;99464.16;;;1.29;75.94
13765;BME280;6953;48.810;9.204;2023-02-28T04:18:57;99107.03;;;-0.67;76.00
13765;BME280;6953;48.810;9.204;2023-02-28T04:21:32;99440.06;;;1.32;75.88
13765;BME280;6953;48.810;9.204;2023-02-28T04:23:58;99367.03;;;0.91;75.55
13765;BME280;6953;48.810;9.204;2023-02-28T04:26:28;99449.50;;;1.40;75.64
13765;BME280;6953;48.810;9.204;2023-02-28T04:28:55;99473.53;;;1.54;75.33
13765;BME280;6953;48.810;9.204;2023-02-28T04:31:20;99245.13;;;0.23;75.06
13765;BME280;6953;48.810;9.204;2023-02-28T04:33:45;99499.38;;;1.59;75.26
13765;BME280;6953;48.810;9.204;2023-02-28T04:36:11;99135.28;;;-0.30;74.91
13765;BME280;6953;48.810;9.204;2023-02-28T04:38:38;99475.22;;;1.63;74.85
13765;BME280;6953;48.810;9.204;2023-02-28T04:41:04;99457.16;;;1.61;75.04
13765;BME280;6953;48.810;9.204;2023-02-28T04:43:30;99154.97;;;-0.14;75.05
13765;BME280;6953;48.810;9.204;2023-02-28T04:45:57;99307.69;;;0.79;74.88
13765;BME280;6953;48.810;9.204;2023-02-28T04:48:24;99220.16;;;0.30;74.65
13765;BME280;6953;48.810;9.204;2023-02-28T04:50:50;99456.22;;;1.68;74.89
13765;BME280;6953;48.810;9.204;2023-02-28T04:53:15;99446.81;;;1.61;74.52
13765;BME280;6953;48.810;9.204;2023-02-28T04:55:41;99460.50;;;1.72;74.62
13765;BME280;6953;48.810;9.204;2023-02-28T04:58:06;99443.31;;;1.64;74.63
13765;BME280;6953;48.810;9.204;2023-02-28T05:00:32;99234.69;;;0.43;74.23
13765;BME280;6953;48.810;9.204;2023-02-28T05:02:57;99463.09;;;1.75;74.63
13765;BME280;6953;48.810;9.204;2023-02-28T05:05:22;99466.53;;;1.77;74.63
13765;BME280;6953;48.810;9.204;2023-02-28T05:07:48;99313.66;;;0.90;74.38
13765;BME280;6953;48.810;9.204;2023-02-28T05:10:13;99473.41;;;1.80;74.39
13765;BME280;6953;48.810;9.204;2023-02-28T05:12:38;99396.94;;;1.34;74.17
13765;BME280;6953;48.810;9.204;2023-02-28T05:15:04;99289.63;;;0.81;74.29
13765;BME280;6953;48.810;9.204;2023-02-28T05:17:30;99170.34;;;0.13;74.04
13765;BME280;6953;48.810;9.204;2023-02-28T05:19:56;99473.34;;;1.87;74.49
13765;BME280;6953;48.810;9.204;2023-02-28T05:22:21;99190.06;;;0.29;74.14
13765;BME280;6953;48.810;9.204;2023-02-28T05:24:46;99150.59;;;0.03;74.01
13765;BME280;6953;48.810;9.204;2023-02-28T05:27:12;99474.19;;;1.89;74.25
13765;BME280;6953;48.810;9.204;2023-02-28T05:29:37;99335.94;;;1.09;74.29
13765;BME280;6953;48.810;9.204;2023-02-28T05:32:10;99455.25;;;1.84;74.21
13765;BME280;6953;48.810;9.204;2023-02-28T05:34:40;99402.88;;;1.52;74.04
13765;BME280;6953;48.810;9.204;2023-02-28T05:37:07;99469.88;;;1.91;74.42
13765;BME280;6953;48.810;9.204;2023-02-28T05:39:36;99475.94;;;1.92;74.25
13765;BME280;6953;48.810;9.204;2023-02-28T05:42:01;99433.84;;;1.66;74.41
13765;BME280;6953;48.810;9.204;2023-02-28T05:44:26;99184.91;;;0.23;74.33
13765;BME280;6953;48.810;9.204;2023-02-28T05:46:52;99190.06;;;0.24;74.39
13765;BME280;6953;48.810;9.204;2023-02-28T05:49:17;99401.19;;;1.50;74.50
13765;BME280;6953;48.810;9.204;2023-02-28T05:51:42;99521.59;;;1.94;74.57
13765;BME280;6953;48.810;9.204;2023-02-28T05:54:08;99481.91;;;1.98;74.43
13765;BME280;6953;48.810;9.204;2023-02-28T05:56:33;99478.47;;;1.96;73.98
13765;BME280;6953;48.810;9.204;2023-02-28T05:59:04;99423.50;;;1.64;74.28
13765;BME280;6953;48.810;9.204;2023-02-28T06:01:40;99279.28;;;0.81;74.21
13765;BME280;6953;48.810;9.204;2023-02-28T06:04:07;99486.22;;;2.02;74.44
13765;BME280;6953;48.810;9.204;2023-02-28T06:06:33;99400.31;;;1.49;74.20
13765;BME280;6953;48.810;9.204;2023-02-28T06:09:03;99471.53;;;2.03;74.31
13765;BME280;6953;48.810;9.204;2023-02-28T06:11:29;99296.38;;;0.98;73.72
13765;BME280;6953;48.810;9.204;2023-02-28T06:13:58;99414.88;;;1.67;73.88
13765;BME280;6953;48.810;9.204;2023-02-28T06:16:26;99487.91;;;2.07;73.84
13765;BME280;6953;48.810;9.204;2023-02-28T06:18:52;99414.88;;;1.64;73.38
13765;BME280;6953;48.810;9.204;2023-02-28T06:21:18;99487.88;;;2.06;73.70
13765;BME280;6953;48.810;9.204;2023-02-28T06:23:44;99513.78;;;2.04;73.90
13765;BME280;6953;48.810;9.204;2023-02-28T06:26:10;99295.47;;;1.06;73.28
13765;BME280;6953;48.810;9.204;2023-02-28T06:28:35;99188.25;;;0.43;73.62
13765;BME280;6953;48.810;9.204;2023-02-28T06:31:09;99475.75;;;2.14;73.26
13765;BME280;6953;48.810;9.204;2023-02-28T06:33:35;99425.97;;;1.82;72.99
13765;BME280;6953;48.810;9.204;2023-02-28T06:36:01;99507.59;;;2.25;73.26
13765;BME280;6953;48.810;9.204;2023-02-28T06:38:27;99221.75;;;0.58;72.96
13765;BME280;6953;48.810;9.204;2023-02-28T06:40:53;99493.84;;;2.23;72.97
13765;BME280;6953;48.810;9.204;2023-02-28T06:43:19;99500.66;;;2.30;72.94
13765;BME280;6953;48.810;9.204;2023-02-28T06:45:44;99476.59;;;2.19;72.70
13765;BME280;6953;48.810;9.204;2023-02-28T06:48:09;99549.78;;;2.42;72.65
13765;BME280;6953;48.810;9.204;2023-02-28T06:50:35;99514.38;;;2.44;71.96
13765;BME280;6953;48.810;9.204;2023-02-28T06:53:01;99545.50;;;2.38;72.02
13765;BME280;6953;48.810;9.204;2023-02-28T06:55:26;99556.63;;;2.49;71.73
13765;BME280;6953;48.810;9.204;2023-02-28T06:57:51;99520.34;;;2.52;72.14
13765;BME280;6953;48.810;9.204;2023-02-28T07:00:17;99208.72;;;0.77;71.54
13765;BME280;6953;48.810;9.204;2023-02-28T07:02:43;99230.97;;;0.96;71.22
13765;BME280;6953;48.810;9.204;2023-02-28T07:05:08;99513.31;;;2.66;71.30
13765;BME280;6953;48.810;9.204;2023-02-28T07:07:33;99430.00;;;2.20;71.38
13765;BME280;6953;48.810;9.204;2023-02-28T07:10:01;99508.91;;;2.77;71.35
13765;BME280;6953;48.810;9.204;2023-02-28T07:12:26;99525.28;;;2.82;70.85
13765;BME280;6953;48.810;9.204;2023-02-28T07:14:52;99550.25;;;2.86;70.89
13765;BME280;6953;48.810;9.204;2023-02-28T07:17:17;99529.50;;;2.89;70.62
13765;BME280;6953;48.810;9.204;2023-02-28T07:19:42;99449.66;;;2.42;70.50
13765;BME280;6953;48.810;9.204;2023-02-28T07:22:08;99467.59;;;2.63;69.83
13765;BME280;6953;48.810;9.204;2023-02-28T07:24:33;99528.53;;;3.00;69.68
13765;BME280;6953;48.810;9.204;2023-02-28T07:26:59;99521.63;;;3.02;69.49
13765;BME280;6953;48.810;9.204;2023-02-28T07:29:25;99572.59;;;3.05;70.12
13765;BME280;6953;48.810;9.204;2023-02-28T07:31:50;99544.88;;;3.09;69.54
13765;BME280;6953;48.810;9.204;2023-02-28T07:34:18;99517.16;;;3.14;69.06
13765;BME280;6953;48.810;9.204;2023-02-28T07:36:43;99517.09;;;3.23;68.30
13765;BME280;6953;48.810;9.204;2023-02-28T07:39:09;99393.50;;;2.50;68.56
13765;BME280;6953;48.810;9.204;2023-02-28T07:41:35;99526.47;;;3.33;68.22
13765;BME280;6953;48.810;9.204;2023-02-28T07:44:04;99517.00;;;3.31;67.69
13765;BME280;6953;48.810;9.204;2023-02-28T07:46:30;99535.03;;;3.40;67.43
13765;BME280;6953;48.810;9.204;2023-02-28T07:49:00;99554.91;;;3.41;67.71
13765;BME280;6953;48.810;9.204;2023-02-28T07:51:26;99526.34;;;3.45;67.45
13765;BME280;6953;48.810;9.204;2023-02-28T07:53:51;99533.22;;;3.48;66.89
13765;BME280;6953;48.810;9.204;2023-02-28T07:56:16;99532.28;;;3.53;67.50
13765;BME280;6953;48.810;9.204;2023-02-28T07:58:42;99537.41;;;3.58;66.59
13765;BME280;6953;48.810;9.204;2023-02-28T08:01:09;99530.81;;;3.31;66.55
13765;BME280;6953;48.810;9.204;2023-02-28T08:03:35;99540.78;;;3.66;66.82
13765;BME280;6953;48.810;9.204;2023-02-28T08:06:02;99536.41;;;3.69;66.36
13765;BME280;6953;48.810;9.204;2023-02-28T08:08:27;99534.69;;;3.70;65.98
13765;BME280;6953;48.810;9.204;2023-02-28T08:11:01;99547.53;;;3.80;65.83
13765;BME280;6953;48.810;9.204;2023-02-28T08:13:28;99537.97;;;3.84;65.65
13765;BME280;6953;48.810;9.204;2023-02-28T08:15:54;99440.13;;;3.27;64.96
13765;BME280;6953;48.810;9.204;2023-02-28T08:18:20;99546.47;;;3.96;65.29
13765;BME280;6953;48.810;9.204;2023-02-28T08:20:46;99274.44;;;2.44;64.35
13765;BME280;6953;48.810;9.204;2023-02-28T08:23:11;99264.06;;;2.46;63.85
13765;BME280;6953;48.810;9.204;2023-02-28T08:25:37;99547.09;;;4.14;63.92
13765;BME280;6953;48.810;9.204;2023-02-28T08:28:02;99511.72;;;4.05;63.98
13765;BME280;6953;48.810;9.204;2023-02-28T08:30:28;99246.75;;;2.52;63.15
13765;BME280;6953;48.810;9.204;2023-02-28T08:32:53;99481.78;;;3.81;62.85
13765;BME280;6953;48.810;9.204;2023-02-28T08:35:20;99528.84;;;4.19;63.22
13765;BME280;6953;48.810;9.204;2023-02-28T08:37:47;99268.94;;;2.71;62.74
13765;BME280;6953;48.810;9.204;2023-02-28T08:40:13;99529.59;;;4.25;62.62
13765;BME280;6953;48.810;9.204;2023-02-28T08:42:44;99526.84;;;4.37;62.89
13765;BME280;6953;48.810;9.204;2023-02-28T08:45:10;99543.81;;;4.58;61.94
13765;BME280;6953;48.810;9.204;2023-02-28T08:47:35;99471.66;;;4.22;61.80
13765;BME280;6953;48.810;9.204;2023-02-28T08:50:01;99558.47;;;4.63;61.72
13765;BME280;6953;48.810;9.204;2023-02-28T08:52:26;99521.16;;;4.67;60.82
13765;BME280;6953;48.810;9.204;2023-02-28T08:54:51;99299.06;;;3.41;58.57
13765;BME280;6953;48.810;9.204;2023-02-28T08:57:17;99552.81;;;4.90;59.01
13765;BME280;6953;48.810;9.204;2023-02-28T08:59:42;99550.97;;;4.97;58.63
13765;BME280;6953;48.810;9.204;2023-02-28T09:02:09;99568.16;;;5.05;57.70
13765;BME280;6953;48.810;9.204;2023-02-28T09:04:37;99325.38;;;3.72;56.68
13765;BME280;6953;48.810;9.204;2023-02-28T09:07:02;99559.94;;;5.29;56.39
13765;BME280;6953;48.810;9.204;2023-02-28T09:09:27;99562.31;;;5.41;55.01
13765;BME280;6953;48.810;9.204;2023-02-28T09:11:55;99556.00;;;5.54;54.49
13765;BME280;6953;48.810;9.204;2023-02-28T09:14:20;99560.97;;;5.66;54.24
13765;BME280;6953;48.810;9.204;2023-02-28T09:16:46;99533.63;;;5.45;53.08
13765;BME280;6953;48.810;9.204;2023-02-28T09:19:12;99311.59;;;4.18;52.99
13765;BME280;6953;48.810;9.204;2023-02-28T09:21:37;99467.53;;;5.10;52.27
13765;BME280;6953;48.810;9.204;2023-02-28T09:24:03;99560.91;;;5.69;52.22
13765;BME280;6953;48.810;9.204;2023-02-28T09:26:28;99559.00;;;5.78;52.03
13765;BME280;6953;48.810;9.204;2023-02-28T09:28:54;99491.06;;;5.48;51.24
13765;BME280;6953;48.810;9.204;2023-02-28T09:31:26;99592.00;;;6.20;51.31
13765;BME280;6953;48.810;9.204;2023-02-28T09:33:54;99493.59;;;5.93;50.50
13765;BME280;6953;48.810;9.204;2023-02-28T09:36:20;99574.47;;;6.28;49.13
13765;BME280;6953;48.810;9.204;2023-02-28T09:38:45;99579.69;;;6.26;49.16
13765;BME280;6953;48.810;9.204;2023-02-28T09:41:23;99337.94;;;4.89;49.06
13765;BME280;6953;48.810;9.204;2023-02-28T09:43:53;99575.97;;;6.38;48.63
13765;BME280;6953;48.810;9.204;2023-02-28T09:46:43;99341.75;;;5.14;48.71
13765;BME280;6953;48.810;9.204;2023-02-28T09:49:17;99550.59;;;6.44;48.06
13765;BME280;6953;48.810;9.204;2023-02-28T09:54:18;99579.13;;;6.88;47.95
13765;BME280;6953;48.810;9.204;2023-02-28T09:56:46;99522.75;;;6.46;47.13
13765;BME280;6953;48.810;9.204;2023-02-28T09:59:25;99590.44;;;6.89;47.51
13765;BME280;6953;48.810;9.204;2023-02-28T10:02:08;99471.19;;;6.24;46.68
13765;BME280;6953;48.810;9.204;2023-02-28T10:07:21;99330.25;;;6.33;45.23
13765;BME280;6953;48.810;9.204;2023-02-28T10:09:54;99547.88;;;8.13;42.70
13765;BME280;6953;48.810;9.204;2023-02-28T10:12:21;99588.28;;;8.60;41.81
13765;BME280;6953;48.810;9.204;2023-02-28T10:14:49;99495.13;;;8.29;40.89
13765;BME280;6953;48.810;9.204;2023-02-28T10:17:22;99595.31;;;8.86;40.21
13765;BME280;6953;48.810;9.204;2023-02-28T10:22:21;99627.66;;;8.56;41.13
13765;BME280;6953;48.810;9.204;2023-02-28T10:24:53;99376.81;;;7.10;41.22
13765;BME280;6953;48.810;9.204;2023-02-28T10:27:20;99607.41;;;8.62;41.07
13765;BME280;6953;48.810;9.204;2023-02-28T10:29:48;99365.13;;;7.52;40.04
13765;BME280;6953;48.810;9.204;2023-02-28T10:32:17;99369.34;;;9.11;36.88
13765;BME280;6953;48.810;9.204;2023-02-28T10:34:43;99613.97;;;11.57;34.27
13765;BME280;6953;48.810;9.204;2023-02-28T10:37:11;99615.31;;;11.46;33.79
13765;BME280;6953;48.810;9.204;2023-02-28T10:39:43;99610.25;;;10.56;35.31
13765;BME280;6953;48.810;9.204;2023-02-28T10:42:29;99637.34;;;10.09;36.92
13765;BME280;6953;48.810;9.204;2023-02-28T10:45:14;99604.78;;;10.39;36.36
13765;BME280;6953;48.810;9.204;2023-02-28T10:47:55;99534.81;;;10.61;35.95
13765;BME280;6953;48.810;9.204;2023-02-28T10:50:36;99604.78;;;11.87;33.85
13765;BME280;6953;48.810;9.204;2023-02-28T10:56:15;99622.69;;;16.57;26.24
13765;BME280;6953;48.810;9.204;2023-02-28T11:01:45;99635.19;;;18.64;22.99
13765;BME280;6953;48.810;9.204;2023-02-28T11:07:17;99634.53;;;21.15;20.00
13765;BME280;6953;48.810;9.204;2023-02-28T11:09:46;99571.69;;;20.67;20.14
13765;BME280;6953;48.810;9.204;2023-02-28T11:12:29;99621.28;;;20.48;20.21
13765;BME280;6953;48.810;9.204;2023-02-28T11:15:00;99495.09;;;19.13;20.50
13765;BME280;6953;48.810;9.204;2023-02-28T11:17:28;99620.47;;;20.91;20.68
13765;BME280;6953;48.810;9.204;2023-02-28T11:20:00;99649.03;;;22.38;18.56
13765;BME280;6953;48.810;9.204;2023-02-28T11:22:31;99618.47;;;23.88;17.38
13765;BME280;6953;48.810;9.204;2023-02-28T11:25:02;99445.06;;;23.51;16.54
13765;BME280;6953;48.810;9.204;2023-02-28T11:30:00;99534.75;;;24.13;16.34
13765;BME280;6953;48.810;9.204;2023-02-28T11:32:30;99474.25;;;24.28;15.84
13765;BME280;6953;48.810;9.204;2023-02-28T11:35:26;99580.66;;;25.46;15.21
13765;BME280;6953;48.810;9.204;2023-02-28T11:37:50;99526.44;;;25.06;15.01
13765;BME280;6953;48.810;9.204;2023-02-28T11:40:23;99565.09;;;24.96;15.42
13765;BME280;6953;48.810;9.204;2023-02-28T11:45:45;99616.53;;;25.72;14.93
13765;BME280;6953;48.810;9.204;2023-02-28T11:51:21;99615.09;;;26.80;14.16
13765;BME280;6953;48.810;9.204;2023-02-28T11:56:48;99593.19;;;25.01;15.17
13765;BME280;6953;48.810;9.204;2023-02-28T12:02:28;99612.34;;;26.30;14.23
13765;BME280;6953;48.810;9.204;2023-02-28T12:11:32;99624.56;;;26.16;14.37
13765;BME280;6953;48.810;9.204;2023-02-28T12:14:21;99599.31;;;25.47;14.81
13765;BME280;6953;48.810;9.204;2023-02-28T12:19:23;99600.34;;;26.41;13.99
13765;BME280;6953;48.810;9.204;2023-02-28T12:22:13;99624.16;;;26.29;14.20
13765;BME280;6953;48.810;9.204;2023-02-28T12:27:27;99586.31;;;26.55;14.38
13765;BME280;6953;48.810;9.204;2023-02-28T12:30:03;99591.03;;;26.87;13.94
13765;BME280;6953;48.810;9.204;2023-02-28T12:32:33;99606.53;;;26.17;14.30
13765;BME280;6953;48.810;9.204;2023-02-28T12:37:41;99606.09;;;24.88;15.32
13765;BME280;6953;48.810;9.204;2023-02-28T12:40:14;99527.97;;;25.09;15.10
13765;BME280;6953;48.810;9.204;2023-02-28T12:42:46;99578.63;;;26.18;14.23
13765;BME280;6953;48.810;9.204;2023-02-28T12:45:19;99574.19;;;27.10;14.01
13765;BME280;6953;48.810;9.204;2023-02-28T12:47:51;99584.97;;;27.83;13.15
13765;BME280;6953;48.810;9.204;2023-02-28T12:50:18;99561.56;;;27.68;13.44
13765;BME280;6953;48.810;9.204;2023-02-28T12:52:54;99593.84;;;27.44;13.51
13765;BME280;6953;48.810;9.204;2023-02-28T13:06:20;99551.69;;;23.57;16.18
13765;BME280;6953;48.810;9.204;2023-02-28T13:09:12;99381.78;;;22.65;16.00
13765;BME280;6953;48.810;9.204;2023-02-28T13:11:44;99413.97;;;22.44;16.26
13765;BME280;6953;48.810;9.204;2023-02-28T13:14:22;99551.97;;;21.86;17.32
13765;BME280;6953;48.810;9.204;2023-02-28T13:16:57;99530.81;;;19.09;19.57
13765;BME280;6953;48.810;9.204;2023-02-28T13:19:26;99485.84;;;16.82;21.84
13765;BME280;6953;48.810;9.204;2023-02-28T13:21:52;99524.50;;;15.61;23.49
13765;BME280;6953;48.810;9.204;2023-02-28T13:24:41;99514.50;;;14.91;24.71
13765;BME280;6953;48.810;9.204;2023-02-28T13:39:51;99233.63;;;11.24;28.35
13765;BME280;6953;48.810;9.204;2023-02-28T13:47:39;99479.06;;;12.14;29.50
13765;BME280;6953;48.810;9.204;2023-02-28T13:50:36;99477.72;;;11.87;30.38
13765;BME280;6953;48.810;9.204;2023-02-28T13:58:59;99476.31;;;11.40;31.40
13765;BME280;6953;48.810;9.204;2023-02-28T14:01:44;99264.34;;;10.06;31.50
13765;BME280;6953;48.810;9.204;2023-02-28T14:06:59;99404.22;;;10.46;31.99
13765;BME280;6953;48.810;9.204;2023-02-28T14:09:27;99465.31;;;10.71;32.52
13765;BME280;6953;48.810;9.204;2023-02-28T14:11:54;99391.63;;;10.13;32.87
13765;BME280;6953;48.810;9.204;2023-02-28T14:17:02;99511.38;;;10.35;33.95
13765;BME280;6953;48.810;9.204;2023-02-28T14:19:32;99495.75;;;10.32;34.11
13765;BME280;6953;48.810;9.204;2023-02-28T14:25:09;99463.66;;;10.26;34.42
13765;BME280;6953;48.810;9.204;2023-02-28T14:27:42;99462.53;;;10.10;34.61
13765;BME280;6953;48.810;9.204;2023-02-28T14:30:14;99221.31;;;8.58;34.47
13765;BME280;6953;48.810;9.204;2023-02-28T14:35:57;99339.50;;;9.17;35.16
13765;BME280;6953;48.810;9.204;2023-02-28T14:41:34;99439.28;;;9.78;35.80
13765;BME280;6953;48.810;9.204;2023-02-28T14:44:11;99180.97;;;8.18;35.95
13765;BME280;6953;48.810;9.204;2023-02-28T14:46:39;99461.25;;;9.75;36.43
13765;BME280;6953;48.810;9.204;2023-02-28T14:49:06;99468.19;;;9.76;36.25
13765;BME280;6953;48.810;9.204;2023-02-28T14:51:32;99178.56;;;8.12;37.01
13765;BME280;6953;48.810;9.204;2023-02-28T14:54:00;99462.06;;;9.76;36.68
13765;BME280;6953;48.810;9.204;2023-02-28T14:56:33;99466.47;;;9.75;36.79
13765;BME280;6953;48.810;9.204;2023-02-28T14:58:59;99448.75;;;9.59;36.95
13765;BME280;6953;48.810;9.204;2023-02-28T15:01:25;99403.47;;;9.32;37.00
13765;BME280;6953;48.810;9.204;2023-02-28T15:04:05;99463.44;;;9.63;37.15
13765;BME280;6953;48.810;9.204;2023-02-28T15:06:32;99472.31;;;9.59;37.18
13765;BME280;6953;48.810;9.204;2023-02-28T15:09:15;99469.88;;;9.54;37.67
13765;BME280;6953;48.810;9.204;2023-02-28T15:11:45;99470.38;;;9.41;37.67
13765;BME280;6953;48.810;9.204;2023-02-28T15:14:29;99199.31;;;7.66;37.91
13765;BME280;6953;48.810;9.204;2023-02-28T15:16:58;99461.03;;;9.10;37.73
13765;BME280;6953;48.810;9.204;2023-02-28T15:19:32;99464.44;;;9.12;38.23
13765;BME280;6953;48.810;9.204;2023-02-28T15:22:06;99465.41;;;9.09;39.31
13765;BME280;6953;48.810;9.204;2023-02-28T15:24:42;99476.94;;;9.04;39.12
13765;BME280;6953;48.810;9.204;2023-02-28T15:27:29;99388.41;;;8.41;39.32
13765;BME280;6953;48.810;9.204;2023-02-28T15:30:00;99468.00;;;8.85;39.92